sensor_id;sensor_type;location;lat;lon;timestamp;P1;durP1;ratioP1;P2;durP2;ratioP2
11283;SDS011;5698;47.332;11.180;2023-01-26T00:00:48;5.10;;;4.50;;
11283;SDS011;5698;47.332;11.180;2023-01-26T00:03:15;5.90;;;4.63;;
11283;SDS011;5698;47.332;11.180;2023-01-26T00:05:42;5.13;;;4.13;;
11283;SDS011;5698;47.332;11.180;2023-01-26T00:08:10;6.47;;;4.27;;
11283;SDS011;5698;47.332;11.180;2023-01-26T00:10:38;5.80;;;4.50;;
11283;SDS011;5698;47.332;11.180;2023-01-26T00:13:06;4.67;;;4.27;;
11283;SDS011;5698;47.332;11.180;2023-01-26T00:15:36;5.03;;;4.43;;
11283;SDS011;5698;47.332;11.180;2023-01-26T00:18:03;4.67;;;4.20;;
11283;SDS011;5698;47.332;11.180;2023-01-26T00:20:30;5.23;;;4.70;;
11283;SDS011;5698;47.332;11.180;2023-01-26T00:22:57;6.20;;;4.30;;
11283;SDS011;5698;47.332;11.180;2023-01-26T00:25:24;6.50;;;4.20;;
11283;SDS011;5698;47.332;11.180;2023-01-26T00:27:51;6.17;;;4.17;;
11283;SDS011;5698;47.332;11.180;2023-01-26T00:30:18;4.50;;;4.10;;
11283;SDS011;5698;47.332;11.180;2023-01-26T00:32:47;4.77;;;4.27;;
11283;SDS011;5698;47.332;11.180;2023-01-26T00:35:14;6.07;;;4.23;;
11283;SDS011;5698;47.332;11.180;2023-01-26T00:37:41;6.40;;;4.57;;
11283;SDS011;5698;47.332;11.180;2023-01-26T00:40:08;5.77;;;4.33;;
11283;SDS011;5698;47.332;11.180;2023-01-26T00:42:36;5.73;;;4.00;;
11283;SDS011;5698;47.332;11.180;2023-01-26T00:45:04;4.47;;;4.00;;
11283;SDS011;5698;47.332;11.180;2023-01-26T00:47:32;4.17;;;3.77;;
11283;SDS011;5698;47.332;11.180;2023-01-26T00:50:00;5.33;;;4.23;;
11283;SDS011;5698;47.332;11.180;2023-01-26T00:52:27;4.73;;;4.03;;
11283;SDS011;5698;47.332;11.180;2023-01-26T00:54:54;5.70;;;4.13;;
11283;SDS011;5698;47.332;11.180;2023-01-26T00:57:21;5.07;;;4.13;;
11283;SDS011;5698;47.332;11.180;2023-01-26T00:59:48;4.47;;;4.00;;
11283;SDS011;5698;47.332;11.180;2023-01-26T01:02:15;4.67;;;4.17;;
11283;SDS011;5698;47.332;11.180;2023-01-26T01:04:42;5.17;;;4.43;;
11283;SDS011;5698;47.332;11.180;2023-01-26T01:07:10;5.50;;;4.47;;
11283;SDS011;5698;47.332;11.180;2023-01-26T01:09:37;6.60;;;4.17;;
11283;SDS011;5698;47.332;11.180;2023-01-26T01:12:04;5.10;;;4.27;;
11283;SDS011;5698;47.332;11.180;2023-01-26T01:14:31;5.40;;;4.47;;
11283;SDS011;5698;47.332;11.180;2023-01-26T01:16:58;5.00;;;4.00;;
11283;SDS011;5698;47.332;11.180;2023-01-26T01:19:25;4.93;;;4.10;;
11283;SDS011;5698;47.332;11.180;2023-01-26T01:21:52;6.10;;;4.63;;
11283;SDS011;5698;47.332;11.180;2023-01-26T01:24:21;6.10;;;4.57;;
11283;SDS011;5698;47.332;11.180;2023-01-26T01:26:48;5.43;;;4.43;;
11283;SDS011;5698;47.332;11.180;2023-01-26T01:29:15;5.10;;;4.10;;
11283;SDS011;5698;47.332;11.180;2023-01-26T01:31:42;4.83;;;3.83;;
11283;SDS011;5698;47.332;11.180;2023-01-26T01:34:09;4.27;;;3.87;;
11283;SDS011;5698;47.332;11.180;2023-01-26T01:36:36;5.10;;;4.60;;
11283;SDS011;5698;47.332;11.180;2023-01-26T01:39:03;5.73;;;4.33;;
11283;SDS011;5698;47.332;11.180;2023-01-26T01:41:31;4.63;;;3.83;;
11283;SDS011;5698;47.332;11.180;2023-01-26T01:44:11;5.03;;;4.10;;
11283;SDS011;5698;47.332;11.180;2023-01-26T01:46:40;4.60;;;3.47;;
11283;SDS011;5698;47.332;11.180;2023-01-26T01:49:14;4.87;;;3.77;;
11283;SDS011;5698;47.332;11.180;2023-01-26T01:51:45;4.53;;;3.73;;
11283;SDS011;5698;47.332;11.180;2023-01-26T01:54:17;5.23;;;3.20;;
11283;SDS011;5698;47.332;11.180;2023-01-26T01:56:50;5.03;;;3.80;;
11283;SDS011;5698;47.332;11.180;2023-01-26T01:59:21;4.17;;;3.77;;
11283;SDS011;5698;47.332;11.180;2023-01-26T02:01:48;4.23;;;3.57;;
11283;SDS011;5698;47.332;11.180;2023-01-26T02:04:17;3.83;;;3.30;;
11283;SDS011;5698;47.332;11.180;2023-01-26T02:06:47;3.83;;;3.47;;
11283;SDS011;5698;47.332;11.180;2023-01-26T02:09:16;4.93;;;3.43;;
11283;SDS011;5698;47.332;11.180;2023-01-26T02:12:16;4.10;;;3.50;;
11283;SDS011;5698;47.332;11.180;2023-01-26T02:14:48;3.30;;;3.00;;
11283;SDS011;5698;47.332;11.180;2023-01-26T02:17:17;4.17;;;3.57;;
11283;SDS011;5698;47.332;11.180;2023-01-26T02:19:45;5.47;;;3.57;;
11283;SDS011;5698;47.332;11.180;2023-01-26T02:22:20;3.53;;;3.23;;
11283;SDS011;5698;47.332;11.180;2023-01-26T02:24:58;4.10;;;3.50;;
11283;SDS011;5698;47.332;11.180;2023-01-26T02:27:31;4.07;;;3.53;;
11283;SDS011;5698;47.332;11.180;2023-01-26T02:29:58;4.70;;;3.47;;
11283;SDS011;5698;47.332;11.180;2023-01-26T02:32:26;4.07;;;3.60;;
11283;SDS011;5698;47.332;11.180;2023-01-26T02:34:56;5.23;;;3.97;;
11283;SDS011;5698;47.332;11.180;2023-01-26T02:37:23;5.43;;;3.80;;
11283;SDS011;5698;47.332;11.180;2023-01-26T02:39:51;6.67;;;4.27;;
11283;SDS011;5698;47.332;11.180;2023-01-26T02:42:24;5.13;;;4.27;;
11283;SDS011;5698;47.332;11.180;2023-01-26T02:45:04;4.57;;;3.87;;
11283;SDS011;5698;47.332;11.180;2023-01-26T02:47:32;5.00;;;4.10;;
11283;SDS011;5698;47.332;11.180;2023-01-26T02:49:59;4.50;;;4.00;;
11283;SDS011;5698;47.332;11.180;2023-01-26T02:52:26;5.43;;;4.27;;
11283;SDS011;5698;47.332;11.180;2023-01-26T02:54:55;4.60;;;3.63;;
11283;SDS011;5698;47.332;11.180;2023-01-26T02:57:54;3.60;;;3.20;;
11283;SDS011;5698;47.332;11.180;2023-01-26T03:00:24;4.20;;;3.77;;
11283;SDS011;5698;47.332;11.180;2023-01-26T03:02:53;4.40;;;3.70;;
11283;SDS011;5698;47.332;11.180;2023-01-26T03:05:22;4.00;;;3.33;;
11283;SDS011;5698;47.332;11.180;2023-01-26T03:07:49;5.90;;;3.83;;
11283;SDS011;5698;47.332;11.180;2023-01-26T03:10:16;4.70;;;3.93;;
11283;SDS011;5698;47.332;11.180;2023-01-26T03:12:43;5.63;;;4.40;;
11283;SDS011;5698;47.332;11.180;2023-01-26T03:15:10;4.63;;;4.10;;
11283;SDS011;5698;47.332;11.180;2023-01-26T03:18:03;5.30;;;4.13;;
11283;SDS011;5698;47.332;11.180;2023-01-26T03:20:49;5.73;;;4.00;;
11283;SDS011;5698;47.332;11.180;2023-01-26T03:23:33;8.33;;;4.20;;
11283;SDS011;5698;47.332;11.180;2023-01-26T03:26:17;7.57;;;4.77;;
11283;SDS011;5698;47.332;11.180;2023-01-26T03:29:02;5.40;;;4.07;;
11283;SDS011;5698;47.332;11.180;2023-01-26T03:31:29;6.57;;;4.90;;
11283;SDS011;5698;47.332;11.180;2023-01-26T03:33:57;6.87;;;4.83;;
11283;SDS011;5698;47.332;11.180;2023-01-26T03:36:24;5.30;;;4.60;;
11283;SDS011;5698;47.332;11.180;2023-01-26T03:38:51;5.70;;;4.57;;
11283;SDS011;5698;47.332;11.180;2023-01-26T03:41:18;6.47;;;4.73;;
11283;SDS011;5698;47.332;11.180;2023-01-26T03:44:03;6.17;;;5.03;;
11283;SDS011;5698;47.332;11.180;2023-01-26T03:46:47;6.50;;;5.00;;
11283;SDS011;5698;47.332;11.180;2023-01-26T03:49:33;6.23;;;4.60;;
11283;SDS011;5698;47.332;11.180;2023-01-26T03:52:17;5.67;;;4.57;;
11283;SDS011;5698;47.332;11.180;2023-01-26T03:55:01;5.63;;;4.60;;
11283;SDS011;5698;47.332;11.180;2023-01-26T03:57:46;6.17;;;4.93;;
11283;SDS011;5698;47.332;11.180;2023-01-26T04:00:14;7.00;;;4.97;;
11283;SDS011;5698;47.332;11.180;2023-01-26T04:02:41;8.83;;;5.30;;
11283;SDS011;5698;47.332;11.180;2023-01-26T04:05:26;10.57;;;5.27;;
11283;SDS011;5698;47.332;11.180;2023-01-26T04:08:10;8.50;;;5.67;;
11283;SDS011;5698;47.332;11.180;2023-01-26T04:10:47;6.67;;;5.10;;
11283;SDS011;5698;47.332;11.180;2023-01-26T04:13:16;7.67;;;5.43;;
11283;SDS011;5698;47.332;11.180;2023-01-26T04:16:01;7.40;;;5.30;;
11283;SDS011;5698;47.332;11.180;2023-01-26T04:18:45;8.60;;;5.57;;
11283;SDS011;5698;47.332;11.180;2023-01-26T04:21:31;8.23;;;4.90;;
11283;SDS011;5698;47.332;11.180;2023-01-26T04:23:59;9.40;;;5.80;;
11283;SDS011;5698;47.332;11.180;2023-01-26T04:26:27;6.53;;;5.30;;
11283;SDS011;5698;47.332;11.180;2023-01-26T04:28:59;6.20;;;5.13;;
11283;SDS011;5698;47.332;11.180;2023-01-26T04:31:27;9.03;;;5.77;;
11283;SDS011;5698;47.332;11.180;2023-01-26T04:33:54;7.77;;;4.80;;
11283;SDS011;5698;47.332;11.180;2023-01-26T04:36:21;7.90;;;5.23;;
11283;SDS011;5698;47.332;11.180;2023-01-26T04:38:49;7.33;;;5.27;;
11283;SDS011;5698;47.332;11.180;2023-01-26T04:41:16;7.67;;;5.40;;
11283;SDS011;5698;47.332;11.180;2023-01-26T04:43:43;6.50;;;4.87;;
11283;SDS011;5698;47.332;11.180;2023-01-26T04:46:10;7.90;;;5.50;;
11283;SDS011;5698;47.332;11.180;2023-01-26T04:48:37;7.27;;;5.00;;
11283;SDS011;5698;47.332;11.180;2023-01-26T04:51:05;7.77;;;5.50;;
11283;SDS011;5698;47.332;11.180;2023-01-26T04:53:33;7.87;;;5.77;;
11283;SDS011;5698;47.332;11.180;2023-01-26T04:56:02;6.60;;;4.70;;
11283;SDS011;5698;47.332;11.180;2023-01-26T04:58:29;6.60;;;4.87;;
11283;SDS011;5698;47.332;11.180;2023-01-26T05:00:57;7.27;;;5.40;;
11283;SDS011;5698;47.332;11.180;2023-01-26T05:03:24;6.00;;;4.40;;
11283;SDS011;5698;47.332;11.180;2023-01-26T05:05:52;6.33;;;4.67;;
11283;SDS011;5698;47.332;11.180;2023-01-26T05:08:21;6.87;;;4.87;;
11283;SDS011;5698;47.332;11.180;2023-01-26T05:10:48;7.10;;;5.03;;
11283;SDS011;5698;47.332;11.180;2023-01-26T05:13:17;6.63;;;4.77;;
11283;SDS011;5698;47.332;11.180;2023-01-26T05:15:45;7.47;;;4.63;;
11283;SDS011;5698;47.332;11.180;2023-01-26T05:18:12;7.37;;;4.90;;
11283;SDS011;5698;47.332;11.180;2023-01-26T05:20:39;5.93;;;4.03;;
11283;SDS011;5698;47.332;11.180;2023-01-26T05:23:06;6.80;;;4.57;;
11283;SDS011;5698;47.332;11.180;2023-01-26T05:25:33;6.70;;;5.20;;
11283;SDS011;5698;47.332;11.180;2023-01-26T05:28:00;5.67;;;4.50;;
11283;SDS011;5698;47.332;11.180;2023-01-26T05:30:29;6.07;;;4.63;;
11283;SDS011;5698;47.332;11.180;2023-01-26T05:32:59;6.07;;;4.53;;
11283;SDS011;5698;47.332;11.180;2023-01-26T05:35:26;7.27;;;5.00;;
11283;SDS011;5698;47.332;11.180;2023-01-26T05:37:53;5.17;;;3.83;;
11283;SDS011;5698;47.332;11.180;2023-01-26T05:40:21;5.30;;;3.87;;
11283;SDS011;5698;47.332;11.180;2023-01-26T05:42:48;6.07;;;4.13;;
11283;SDS011;5698;47.332;11.180;2023-01-26T05:45:16;5.50;;;4.77;;
11283;SDS011;5698;47.332;11.180;2023-01-26T05:47:44;4.57;;;3.70;;
11283;SDS011;5698;47.332;11.180;2023-01-26T05:50:12;6.07;;;4.17;;
11283;SDS011;5698;47.332;11.180;2023-01-26T05:52:40;7.53;;;4.07;;
11283;SDS011;5698;47.332;11.180;2023-01-26T05:55:10;4.97;;;3.83;;
11283;SDS011;5698;47.332;11.180;2023-01-26T05:57:38;4.27;;;3.80;;
11283;SDS011;5698;47.332;11.180;2023-01-26T06:00:05;5.60;;;4.40;;
11283;SDS011;5698;47.332;11.180;2023-01-26T06:02:33;5.33;;;4.53;;
11283;SDS011;5698;47.332;11.180;2023-01-26T06:05:02;6.07;;;4.00;;
11283;SDS011;5698;47.332;11.180;2023-01-26T06:07:29;5.37;;;4.07;;
11283;SDS011;5698;47.332;11.180;2023-01-26T06:09:57;5.87;;;4.17;;
11283;SDS011;5698;47.332;11.180;2023-01-26T06:12:24;4.63;;;4.03;;
11283;SDS011;5698;47.332;11.180;2023-01-26T06:14:55;4.83;;;3.40;;
11283;SDS011;5698;47.332;11.180;2023-01-26T06:17:22;5.20;;;4.10;;
11283;SDS011;5698;47.332;11.180;2023-01-26T06:19:49;5.13;;;4.20;;
11283;SDS011;5698;47.332;11.180;2023-01-26T06:22:17;6.07;;;4.30;;
11283;SDS011;5698;47.332;11.180;2023-01-26T06:24:45;5.57;;;4.13;;
11283;SDS011;5698;47.332;11.180;2023-01-26T06:27:12;4.27;;;3.70;;
11283;SDS011;5698;47.332;11.180;2023-01-26T06:29:40;5.27;;;3.43;;
11283;SDS011;5698;47.332;11.180;2023-01-26T06:32:09;5.97;;;4.17;;
11283;SDS011;5698;47.332;11.180;2023-01-26T06:34:36;7.33;;;5.50;;
11283;SDS011;5698;47.332;11.180;2023-01-26T06:37:03;7.17;;;5.67;;
11283;SDS011;5698;47.332;11.180;2023-01-26T06:39:32;5.00;;;4.20;;
11283;SDS011;5698;47.332;11.180;2023-01-26T06:42:00;5.97;;;4.60;;
11283;SDS011;5698;47.332;11.180;2023-01-26T06:44:27;8.00;;;4.50;;
11283;SDS011;5698;47.332;11.180;2023-01-26T06:46:54;5.67;;;4.00;;
11283;SDS011;5698;47.332;11.180;2023-01-26T06:49:21;5.23;;;3.70;;
11283;SDS011;5698;47.332;11.180;2023-01-26T06:51:54;4.43;;;3.17;;
11283;SDS011;5698;47.332;11.180;2023-01-26T06:54:24;4.10;;;3.37;;
11283;SDS011;5698;47.332;11.180;2023-01-26T06:56:52;5.30;;;3.90;;
11283;SDS011;5698;47.332;11.180;2023-01-26T06:59:19;7.93;;;6.00;;
11283;SDS011;5698;47.332;11.180;2023-01-26T07:01:46;8.23;;;6.10;;
11283;SDS011;5698;47.332;11.180;2023-01-26T07:04:14;10.37;;;7.43;;
11283;SDS011;5698;47.332;11.180;2023-01-26T07:06:42;18.67;;;10.77;;
11283;SDS011;5698;47.332;11.180;2023-01-26T07:09:10;12.73;;;9.20;;
11283;SDS011;5698;47.332;11.180;2023-01-26T07:11:37;13.27;;;10.23;;
11283;SDS011;5698;47.332;11.180;2023-01-26T07:14:05;14.03;;;9.90;;
11283;SDS011;5698;47.332;11.180;2023-01-26T07:16:32;29.63;;;11.00;;
11283;SDS011;5698;47.332;11.180;2023-01-26T07:18:59;12.93;;;8.57;;
11283;SDS011;5698;47.332;11.180;2023-01-26T07:21:26;13.40;;;9.47;;
11283;SDS011;5698;47.332;11.180;2023-01-26T07:23:54;10.83;;;8.13;;
11283;SDS011;5698;47.332;11.180;2023-01-26T07:26:21;10.73;;;7.97;;
11283;SDS011;5698;47.332;11.180;2023-01-26T07:28:49;11.40;;;8.37;;
11283;SDS011;5698;47.332;11.180;2023-01-26T07:31:17;10.50;;;7.00;;
11283;SDS011;5698;47.332;11.180;2023-01-26T07:33:44;10.50;;;7.23;;
11283;SDS011;5698;47.332;11.180;2023-01-26T07:36:11;9.13;;;6.50;;
11283;SDS011;5698;47.332;11.180;2023-01-26T07:38:38;11.27;;;7.03;;
11283;SDS011;5698;47.332;11.180;2023-01-26T07:41:06;12.23;;;7.97;;
11283;SDS011;5698;47.332;11.180;2023-01-26T07:43:35;8.30;;;6.67;;
11283;SDS011;5698;47.332;11.180;2023-01-26T07:46:03;7.37;;;6.27;;
11283;SDS011;5698;47.332;11.180;2023-01-26T07:48:32;7.10;;;6.40;;
11283;SDS011;5698;47.332;11.180;2023-01-26T07:50:59;11.07;;;7.80;;
11283;SDS011;5698;47.332;11.180;2023-01-26T07:53:28;12.33;;;9.33;;
11283;SDS011;5698;47.332;11.180;2023-01-26T07:56:05;10.00;;;7.60;;
11283;SDS011;5698;47.332;11.180;2023-01-26T07:58:33;10.53;;;7.70;;
11283;SDS011;5698;47.332;11.180;2023-01-26T08:01:07;11.37;;;8.07;;
11283;SDS011;5698;47.332;11.180;2023-01-26T08:03:37;7.33;;;6.00;;
11283;SDS011;5698;47.332;11.180;2023-01-26T08:06:05;7.23;;;5.73;;
11283;SDS011;5698;47.332;11.180;2023-01-26T08:08:33;7.50;;;4.87;;
11283;SDS011;5698;47.332;11.180;2023-01-26T08:11:00;8.70;;;6.40;;
11283;SDS011;5698;47.332;11.180;2023-01-26T08:13:27;7.00;;;6.07;;
11283;SDS011;5698;47.332;11.180;2023-01-26T08:15:58;9.13;;;7.17;;
11283;SDS011;5698;47.332;11.180;2023-01-26T08:18:27;10.97;;;8.20;;
11283;SDS011;5698;47.332;11.180;2023-01-26T08:20:55;11.33;;;8.57;;
11283;SDS011;5698;47.332;11.180;2023-01-26T08:23:22;13.40;;;9.17;;
11283;SDS011;5698;47.332;11.180;2023-01-26T08:25:49;13.47;;;9.17;;
11283;SDS011;5698;47.332;11.180;2023-01-26T08:28:16;11.03;;;8.10;;
11283;SDS011;5698;47.332;11.180;2023-01-26T08:30:44;13.57;;;10.27;;
11283;SDS011;5698;47.332;11.180;2023-01-26T08:33:11;13.00;;;9.60;;
11283;SDS011;5698;47.332;11.180;2023-01-26T08:35:38;14.23;;;9.67;;
11283;SDS011;5698;47.332;11.180;2023-01-26T08:38:06;17.83;;;11.17;;
11283;SDS011;5698;47.332;11.180;2023-01-26T08:40:33;15.47;;;10.63;;
11283;SDS011;5698;47.332;11.180;2023-01-26T08:43:00;16.40;;;11.13;;
11283;SDS011;5698;47.332;11.180;2023-01-26T08:45:28;21.13;;;12.33;;
11283;SDS011;5698;47.332;11.180;2023-01-26T08:47:55;20.03;;;12.63;;
11283;SDS011;5698;47.332;11.180;2023-01-26T08:50:23;17.43;;;11.23;;
11283;SDS011;5698;47.332;11.180;2023-01-26T08:52:50;17.70;;;11.30;;
11283;SDS011;5698;47.332;11.180;2023-01-26T08:55:18;15.30;;;10.50;;
11283;SDS011;5698;47.332;11.180;2023-01-26T08:57:45;18.03;;;11.33;;
11283;SDS011;5698;47.332;11.180;2023-01-26T09:00:17;16.80;;;11.07;;
11283;SDS011;5698;47.332;11.180;2023-01-26T09:02:44;16.90;;;11.50;;
11283;SDS011;5698;47.332;11.180;2023-01-26T09:05:11;14.73;;;10.40;;
11283;SDS011;5698;47.332;11.180;2023-01-26T09:07:38;18.60;;;12.23;;
11283;SDS011;5698;47.332;11.180;2023-01-26T09:10:06;16.23;;;11.37;;
11283;SDS011;5698;47.332;11.180;2023-01-26T09:12:35;14.93;;;10.90;;
11283;SDS011;5698;47.332;11.180;2023-01-26T09:15:02;20.30;;;12.80;;
11283;SDS011;5698;47.332;11.180;2023-01-26T09:17:30;25.50;;;14.50;;
11283;SDS011;5698;47.332;11.180;2023-01-26T09:19:57;23.73;;;14.63;;
11283;SDS011;5698;47.332;11.180;2023-01-26T09:22:24;20.00;;;13.33;;
11283;SDS011;5698;47.332;11.180;2023-01-26T09:24:51;19.37;;;13.40;;
11283;SDS011;5698;47.332;11.180;2023-01-26T09:27:18;22.43;;;14.47;;
11283;SDS011;5698;47.332;11.180;2023-01-26T09:29:46;18.03;;;11.27;;
11283;SDS011;5698;47.332;11.180;2023-01-26T09:32:14;22.03;;;14.00;;
11283;SDS011;5698;47.332;11.180;2023-01-26T09:34:41;23.07;;;14.53;;
11283;SDS011;5698;47.332;11.180;2023-01-26T09:37:09;24.57;;;16.03;;
11283;SDS011;5698;47.332;11.180;2023-01-26T09:39:36;24.07;;;15.27;;
11283;SDS011;5698;47.332;11.180;2023-01-26T09:42:07;24.17;;;15.27;;
11283;SDS011;5698;47.332;11.180;2023-01-26T09:44:57;19.83;;;13.97;;
11283;SDS011;5698;47.332;11.180;2023-01-26T09:47:34;39.07;;;15.97;;
11283;SDS011;5698;47.332;11.180;2023-01-26T09:50:11;26.73;;;14.07;;
11283;SDS011;5698;47.332;11.180;2023-01-26T09:52:43;31.10;;;21.40;;
11283;SDS011;5698;47.332;11.180;2023-01-26T09:55:18;29.97;;;18.50;;
11283;SDS011;5698;47.332;11.180;2023-01-26T09:57:48;21.90;;;15.70;;
11283;SDS011;5698;47.332;11.180;2023-01-26T10:00:20;26.93;;;16.97;;
11283;SDS011;5698;47.332;11.180;2023-01-26T10:03:02;23.70;;;15.10;;
11283;SDS011;5698;47.332;11.180;2023-01-26T10:05:37;20.50;;;14.40;;
11283;SDS011;5698;47.332;11.180;2023-01-26T10:08:09;20.37;;;13.80;;
11283;SDS011;5698;47.332;11.180;2023-01-26T10:10:39;22.77;;;15.10;;
11283;SDS011;5698;47.332;11.180;2023-01-26T10:13:10;17.43;;;13.20;;
11283;SDS011;5698;47.332;11.180;2023-01-26T10:15:41;19.70;;;13.63;;
11283;SDS011;5698;47.332;11.180;2023-01-26T10:18:11;17.70;;;12.93;;
11283;SDS011;5698;47.332;11.180;2023-01-26T10:20:44;18.53;;;12.83;;
11283;SDS011;5698;47.332;11.180;2023-01-26T10:23:16;18.37;;;13.30;;
11283;SDS011;5698;47.332;11.180;2023-01-26T10:25:47;20.20;;;13.87;;
11283;SDS011;5698;47.332;11.180;2023-01-26T10:28:16;18.87;;;13.03;;
11283;SDS011;5698;47.332;11.180;2023-01-26T10:30:47;17.83;;;12.27;;
11283;SDS011;5698;47.332;11.180;2023-01-26T10:33:23;15.93;;;12.53;;
11283;SDS011;5698;47.332;11.180;2023-01-26T10:35:52;19.00;;;13.30;;
11283;SDS011;5698;47.332;11.180;2023-01-26T10:38:25;16.00;;;12.23;;
11283;SDS011;5698;47.332;11.180;2023-01-26T10:40:52;16.37;;;12.40;;
11283;SDS011;5698;47.332;11.180;2023-01-26T10:43:20;16.17;;;12.27;;
11283;SDS011;5698;47.332;11.180;2023-01-26T10:45:48;15.33;;;11.40;;
11283;SDS011;5698;47.332;11.180;2023-01-26T10:48:16;13.20;;;10.73;;
11283;SDS011;5698;47.332;11.180;2023-01-26T10:50:44;14.13;;;10.90;;
11283;SDS011;5698;47.332;11.180;2023-01-26T10:53:13;11.03;;;9.60;;
11283;SDS011;5698;47.332;11.180;2023-01-26T10:55:56;11.43;;;8.90;;
11283;SDS011;5698;47.332;11.180;2023-01-26T11:01:22;9.17;;;6.63;;
11283;SDS011;5698;47.332;11.180;2023-01-26T11:03:58;7.07;;;5.73;;
11283;SDS011;5698;47.332;11.180;2023-01-26T11:06:29;7.30;;;5.70;;
11283;SDS011;5698;47.332;11.180;2023-01-26T11:09:07;6.90;;;5.07;;
11283;SDS011;5698;47.332;11.180;2023-01-26T11:11:36;5.63;;;4.63;;
11283;SDS011;5698;47.332;11.180;2023-01-26T11:14:10;6.87;;;4.77;;
11283;SDS011;5698;47.332;11.180;2023-01-26T11:16:40;4.60;;;3.57;;
11283;SDS011;5698;47.332;11.180;2023-01-26T11:19:11;4.60;;;3.87;;
11283;SDS011;5698;47.332;11.180;2023-01-26T11:21:43;4.13;;;3.73;;
11283;SDS011;5698;47.332;11.180;2023-01-26T11:24:14;4.57;;;3.07;;
11283;SDS011;5698;47.332;11.180;2023-01-26T11:26:53;4.10;;;3.70;;
11283;SDS011;5698;47.332;11.180;2023-01-26T11:29:45;4.47;;;3.83;;
11283;SDS011;5698;47.332;11.180;2023-01-26T11:32:41;4.50;;;3.67;;
11283;SDS011;5698;47.332;11.180;2023-01-26T11:35:22;4.10;;;3.67;;
11283;SDS011;5698;47.332;11.180;2023-01-26T11:38:00;4.67;;;4.17;;
11283;SDS011;5698;47.332;11.180;2023-01-26T11:40:39;4.63;;;3.67;;
11283;SDS011;5698;47.332;11.180;2023-01-26T11:43:30;4.17;;;3.67;;
11283;SDS011;5698;47.332;11.180;2023-01-26T11:46:20;4.30;;;3.90;;
11283;SDS011;5698;47.332;11.180;2023-01-26T11:49:15;4.30;;;3.80;;
11283;SDS011;5698;47.332;11.180;2023-01-26T11:51:55;5.50;;;4.50;;
11283;SDS011;5698;47.332;11.180;2023-01-26T11:54:47;4.87;;;4.13;;
11283;SDS011;5698;47.332;11.180;2023-01-26T11:57:30;4.93;;;3.63;;
11283;SDS011;5698;47.332;11.180;2023-01-26T12:00:03;6.17;;;4.07;;
11283;SDS011;5698;47.332;11.180;2023-01-26T12:02:40;5.50;;;4.30;;
11283;SDS011;5698;47.332;11.180;2023-01-26T12:05:13;5.77;;;4.37;;
11283;SDS011;5698;47.332;11.180;2023-01-26T12:07:46;5.80;;;4.40;;
11283;SDS011;5698;47.332;11.180;2023-01-26T12:10:19;4.40;;;3.93;;
11283;SDS011;5698;47.332;11.180;2023-01-26T12:12:52;4.93;;;4.40;;
11283;SDS011;5698;47.332;11.180;2023-01-26T12:15:25;5.97;;;5.07;;
11283;SDS011;5698;47.332;11.180;2023-01-26T12:17:58;5.33;;;4.17;;
11283;SDS011;5698;47.332;11.180;2023-01-26T12:20:33;5.40;;;4.10;;
11283;SDS011;5698;47.332;11.180;2023-01-26T12:23:05;4.53;;;4.00;;
11283;SDS011;5698;47.332;11.180;2023-01-26T12:25:39;4.43;;;3.53;;
11283;SDS011;5698;47.332;11.180;2023-01-26T12:28:10;3.33;;;2.80;;
11283;SDS011;5698;47.332;11.180;2023-01-26T12:30:46;4.47;;;3.47;;
11283;SDS011;5698;47.332;11.180;2023-01-26T12:33:19;4.40;;;3.90;;
11283;SDS011;5698;47.332;11.180;2023-01-26T12:38:45;3.43;;;2.97;;
11283;SDS011;5698;47.332;11.180;2023-01-26T12:41:38;3.57;;;3.27;;
11283;SDS011;5698;47.332;11.180;2023-01-26T12:44:25;4.33;;;3.37;;
11283;SDS011;5698;47.332;11.180;2023-01-26T12:47:03;5.47;;;3.37;;
11283;SDS011;5698;47.332;11.180;2023-01-26T12:49:39;3.37;;;3.07;;
11283;SDS011;5698;47.332;11.180;2023-01-26T12:52:12;3.73;;;3.13;;
11283;SDS011;5698;47.332;11.180;2023-01-26T12:54:44;3.80;;;3.40;;
11283;SDS011;5698;47.332;11.180;2023-01-26T12:57:16;3.83;;;3.50;;
11283;SDS011;5698;47.332;11.180;2023-01-26T12:59:47;3.57;;;3.23;;
11283;SDS011;5698;47.332;11.180;2023-01-26T13:02:19;3.30;;;3.00;;
11283;SDS011;5698;47.332;11.180;2023-01-26T13:04:51;3.57;;;3.13;;
11283;SDS011;5698;47.332;11.180;2023-01-26T13:07:27;3.70;;;3.10;;
11283;SDS011;5698;47.332;11.180;2023-01-26T13:18:59;4.60;;;3.67;;
11283;SDS011;5698;47.332;11.180;2023-01-26T13:21:40;4.50;;;3.27;;
11283;SDS011;5698;47.332;11.180;2023-01-26T13:27:30;4.40;;;3.83;;
11283;SDS011;5698;47.332;11.180;2023-01-26T13:29:59;4.27;;;3.40;;
11283;SDS011;5698;47.332;11.180;2023-01-26T13:35:27;4.97;;;4.13;;
11283;SDS011;5698;47.332;11.180;2023-01-26T13:37:56;3.90;;;3.30;;
11283;SDS011;5698;47.332;11.180;2023-01-26T13:40:32;7.63;;;3.60;;
11283;SDS011;5698;47.332;11.180;2023-01-26T13:43:03;5.30;;;3.87;;
11283;SDS011;5698;47.332;11.180;2023-01-26T13:45:35;5.53;;;3.70;;
11283;SDS011;5698;47.332;11.180;2023-01-26T13:48:10;5.07;;;3.83;;
11283;SDS011;5698;47.332;11.180;2023-01-26T13:50:40;3.77;;;3.43;;
11283;SDS011;5698;47.332;11.180;2023-01-26T13:53:24;5.17;;;4.13;;
11283;SDS011;5698;47.332;11.180;2023-01-26T13:56:01;6.10;;;4.47;;
11283;SDS011;5698;47.332;11.180;2023-01-26T13:58:29;4.53;;;4.13;;
11283;SDS011;5698;47.332;11.180;2023-01-26T14:00:57;5.20;;;4.63;;
11283;SDS011;5698;47.332;11.180;2023-01-26T14:03:24;6.23;;;4.20;;
11283;SDS011;5698;47.332;11.180;2023-01-26T14:05:52;3.80;;;3.40;;
11283;SDS011;5698;47.332;11.180;2023-01-26T14:08:22;5.63;;;3.57;;
11283;SDS011;5698;47.332;11.180;2023-01-26T14:10:50;3.93;;;3.50;;
11283;SDS011;5698;47.332;11.180;2023-01-26T14:13:20;4.40;;;3.80;;
11283;SDS011;5698;47.332;11.180;2023-01-26T14:15:55;6.90;;;4.37;;
11283;SDS011;5698;47.332;11.180;2023-01-26T14:18:24;5.77;;;4.33;;
11283;SDS011;5698;47.332;11.180;2023-01-26T14:20:56;4.50;;;3.77;;
11283;SDS011;5698;47.332;11.180;2023-01-26T14:23:27;5.43;;;4.50;;
11283;SDS011;5698;47.332;11.180;2023-01-26T14:25:59;8.37;;;4.13;;
11283;SDS011;5698;47.332;11.180;2023-01-26T14:28:30;6.93;;;4.43;;
11283;SDS011;5698;47.332;11.180;2023-01-26T14:31:01;4.10;;;3.70;;
11283;SDS011;5698;47.332;11.180;2023-01-26T14:33:31;4.97;;;3.93;;
11283;SDS011;5698;47.332;11.180;2023-01-26T14:36:00;6.27;;;4.20;;
11283;SDS011;5698;47.332;11.180;2023-01-26T14:38:28;4.47;;;4.00;;
11283;SDS011;5698;47.332;11.180;2023-01-26T14:41:07;4.70;;;3.73;;
11283;SDS011;5698;47.332;11.180;2023-01-26T14:43:41;6.47;;;4.87;;
11283;SDS011;5698;47.332;11.180;2023-01-26T14:46:09;5.33;;;4.40;;
11283;SDS011;5698;47.332;11.180;2023-01-26T14:48:41;4.93;;;4.40;;
11283;SDS011;5698;47.332;11.180;2023-01-26T14:51:14;4.87;;;4.07;;
11283;SDS011;5698;47.332;11.180;2023-01-26T14:53:47;4.73;;;3.93;;
11283;SDS011;5698;47.332;11.180;2023-01-26T14:56:16;4.03;;;3.30;;
11283;SDS011;5698;47.332;11.180;2023-01-26T14:58:49;4.57;;;3.77;;
11283;SDS011;5698;47.332;11.180;2023-01-26T15:01:21;4.57;;;4.13;;
11283;SDS011;5698;47.332;11.180;2023-01-26T15:03:49;13.47;;;8.67;;
11283;SDS011;5698;47.332;11.180;2023-01-26T15:06:24;6.13;;;4.57;;
11283;SDS011;5698;47.332;11.180;2023-01-26T15:08:54;5.47;;;4.03;;
11283;SDS011;5698;47.332;11.180;2023-01-26T15:11:24;4.63;;;3.90;;
11283;SDS011;5698;47.332;11.180;2023-01-26T15:17:25;5.87;;;4.70;;
11283;SDS011;5698;47.332;11.180;2023-01-26T15:19:54;4.37;;;3.90;;
11283;SDS011;5698;47.332;11.180;2023-01-26T15:22:22;6.37;;;4.33;;
11283;SDS011;5698;47.332;11.180;2023-01-26T15:25:01;4.73;;;3.93;;
11283;SDS011;5698;47.332;11.180;2023-01-26T15:27:35;6.17;;;4.50;;
11283;SDS011;5698;47.332;11.180;2023-01-26T15:30:04;6.50;;;4.03;;